Strona główna
METAR-TAF:

METAR-TAF

Lotnisko :

Port lotniczy Tennant Creek

Tennant Creek, Australia

Szerokość geograficzna: 19-38-04S, Długość geograficzna: 134-11-00E, wysokość: 377 m

Aktualna obserwacja pogody

Raport powstał 24 minut temu, godzina 11:00 UTC
Wiatr 6 kt od wschodnio-północny wschód
Temperatura 34°C
Wilgotność 20%
Ciśnienie 1005 hPa
Widzialność 10 km lub więcej

METAR: YTNK 141100Z AUTO 07006KT 9999 // NCD 34/08 Q1005

czas: 20:54 (11:24 UTC)

Prognoza

Raport powstał 4 godziny i 29 minut temu, godzina 06:55 UTC
Prognoza ważna od 14 godzina 08 UTC do 14 godzina 20 UTC
Wiatr 10 kt od wschód
Widzialność 10 km lub więcej
Brak chmur poniżej 1500 m i brak chmur cumulonimbus

TAF: YTNK 140655Z 1408/1420 10010KT CAVOK

Obserwacja i prognoza pogody dla ponad 4000 lotnisk (raport METAR i TAF).

Dostępne stacje oznaczono żółtymi i czerwonymi punktami na mapie.

Najedź kursorem aby zobaczyć nazwę stacji.

Kliknij aby zobaczyć obserwacje i prognozy pogody.

Aby zmienić mapę: kliknij na zielony przycisk z czarnym krzyżykiem, aby powiększyć; na zielony przycisk z myślnikiem, aby pomniejszyć; na zielone strzałki, aby przejść do map sąsiednich.


METAR-TAF: